Saturday, December 16, 2017, 5:55 AM EST
Back to Local

KLOM, Philadelphia, Wings Field Airport

Location: Blue Bell, PA, United States Lat: 40.138
Local Time: 5:55 AM EST (10:55 GMT) Lon: -75.265
Time Zone: US/Eastern Elev: 301 ft

Show me the last for .
Show Decoded

2017-12-16 05:35 METAR KLOM 161035Z AUTO 23003KT 10SM CLR M08/M09 A3004 RMK AO1 =
2017-12-16 05:15 METAR KLOM 161015Z AUTO 00000KT 10SM CLR M08/M09 A3003 RMK AO1 =
2017-12-16 04:55 METAR KLOM 160955Z AUTO 00000KT 10SM CLR M07/M08 A3003 RMK AO1 =
2017-12-16 04:35 METAR KLOM 160935Z AUTO 22003KT 10SM SCT060 M06/M08 A3003 RMK AO1 =
2017-12-16 04:15 METAR KLOM 160915Z AUTO 00000KT 10SM OVC060 M06/M07 A3004 RMK AO1 =
2017-12-16 03:55 METAR KLOM 160855Z AUTO 24003KT 10SM OVC060 M06/M07 A3003 RMK AO1 =
2017-12-16 03:35 METAR KLOM 160835Z AUTO 00000KT 10SM BKN060 M06/M07 A3003 RMK AO1 =
2017-12-16 03:15 METAR KLOM 160815Z AUTO 00000KT 7SM SCT060 M08/M08 A3002 RMK AO1 =
2017-12-16 02:55 METAR KLOM 160755Z AUTO 00000KT 7SM SCT060 M08/M09 A3001 RMK AO1 =
2017-12-16 02:35 METAR KLOM 160735Z AUTO 00000KT 7SM CLR M08/M09 A3001 RMK AO1 =
2017-12-16 02:15 METAR KLOM 160715Z AUTO 00000KT 5SM CLR M08/M09 A3000 RMK AO1 =
2017-12-16 01:55 METAR KLOM 160655Z AUTO 00000KT 7SM CLR M08/M09 A2999 RMK AO1 =
2017-12-16 01:35 METAR KLOM 160635Z AUTO 25004KT 5SM CLR M07/M08 A2998 RMK AO1 =
2017-12-16 01:15 METAR KLOM 160615Z AUTO 24004KT 5SM CLR M08/M08 A2998 RMK AO1 =
2017-12-16 00:55 METAR KLOM 160555Z AUTO 24003KT 4SM CLR M08/M09 A2998 RMK AO1 =
2017-12-16 00:35 METAR KLOM 160535Z AUTO 00000KT 4SM CLR M10/M10 A2997 RMK AO1 =
2017-12-16 00:15 METAR KLOM 160515Z AUTO 00000KT 4SM CLR M08/M08 A2997 RMK AO1 =
2017-12-15 23:55 METAR KLOM 160455Z AUTO 00000KT 5SM CLR M07/M08 A2997 RMK AO1 =
2017-12-15 23:35 METAR KLOM 160435Z AUTO 00000KT 5SM CLR M08/M08 A2996 RMK AO1 =
2017-12-15 23:15 METAR KLOM 160415Z AUTO 00000KT 5SM CLR M09/M10 A2996 RMK AO1 =
2017-12-15 22:55 METAR KLOM 160355Z AUTO 00000KT 5SM CLR M08/M08 A2996 RMK AO1 =
2017-12-15 22:35 METAR KLOM 160335Z AUTO 00000KT 7SM SCT065 M07/M08 A2996 RMK AO1 =
2017-12-15 22:15 METAR KLOM 160315Z AUTO 00000KT 7SM BKN065 M06/M07 A2996 RMK AO1 =
2017-12-15 21:55 METAR KLOM 160255Z AUTO 24003KT 7SM CLR M07/M08 A2996 RMK AO1 =
2017-12-15 21:35 METAR KLOM 160235Z AUTO 00000KT 7SM SCT016 BKN080 M07/M07 A2996 RMK AO1 =
2017-12-15 21:15 METAR KLOM 160215Z AUTO 00000KT 7SM BKN017 OVC080 M06/M07 A2996 RMK AO1 =
2017-12-15 20:55 METAR KLOM 160155Z AUTO 00000KT 7SM OVC017 M06/M07 A2996 RMK AO1 =
2017-12-15 20:35 METAR KLOM 160135Z AUTO 00000KT 7SM BKN017 M07/M07 A2995 RMK AO1 =
2017-12-15 20:15 METAR KLOM 160115Z AUTO 00000KT 7SM SCT019 M07/M07 A2995 RMK AO1 =
2017-12-15 19:55 METAR KLOM 160055Z AUTO 00000KT 7SM SCT070 M06/M06 A2995 RMK AO1 =
2017-12-15 19:35 METAR KLOM 160035Z AUTO 00000KT 10SM SCT007 OVC070 M05/M06 A2994 RMK AO1 =
2017-12-15 19:15 METAR KLOM 160015Z AUTO 00000KT 10SM SCT007 OVC060 M05/M06 A2994 RMK AO1 =
2017-12-15 18:55 METAR KLOM 152355Z AUTO 00000KT 10SM OVC050 M05/M06 A2993 RMK AO1 =
2017-12-15 18:35 METAR KLOM 152335Z AUTO 00000KT 10SM OVC050 M05/M06 A2993 RMK AO1 =
2017-12-15 18:15 METAR KLOM 152315Z AUTO 00000KT 7SM OVC050 M05/M06 A2993 RMK AO1 =
2017-12-15 17:55 METAR KLOM 152255Z AUTO 00000KT 5SM SCT016 SCT023 OVC050 M05/M06 A2993 RMK AO1 =
2017-12-15 17:35 METAR KLOM 152235Z AUTO 00000KT 1 1/2SM SCT009 BKN013 OVC023 M05/M06 A2993 RMK
                 AO1 =
2017-12-15 17:15 METAR KLOM 152215Z AUTO 00000KT 1 1/4SM BKN006 OVC011 M05/M06 A2993 RMK AO1 =
2017-12-15 16:55 METAR KLOM 152155Z AUTO 00000KT 1SM OVC005 M05/M06 A2993 RMK AO1 =
2017-12-15 16:35 METAR KLOM 152135Z AUTO 00000KT 1/2SM OVC007 M05/M06 A2993 RMK AO1 =
2017-12-15 16:15 METAR KLOM 152115Z AUTO 00000KT 1/2SM OVC005 M05/M06 A2994 RMK AO1 =
2017-12-15 15:55 METAR KLOM 152055Z AUTO 00000KT 1/2SM OVC005 M05/M06 A2995 RMK AO1 =
2017-12-15 15:35 METAR KLOM 152035Z AUTO 00000KT 3/4SM OVC009 M05/M06 A2995 RMK AO1 =
2017-12-15 15:15 METAR KLOM 152015Z AUTO 00000KT 3/4SM OVC007 M05/M06 A2994 RMK AO1 =
2017-12-15 14:55 METAR KLOM 151955Z AUTO 00000KT 1/2SM OVC007 M05/M06 A2994 RMK AO1 =
2017-12-15 14:35 METAR KLOM 151935Z AUTO 00000KT 3/4SM OVC010 M05/M06 A2994 RMK AO1 =
2017-12-15 14:15 METAR KLOM 151915Z AUTO 00000KT 1SM OVC010 M05/M06 A2995 RMK AO1 =
2017-12-15 13:55 METAR KLOM 151855Z AUTO 00000KT 3/4SM OVC008 M05/M07 A2996 RMK AO1 =
2017-12-15 13:35 METAR KLOM 151835Z AUTO 00000KT 1 1/4SM BKN010 OVC014 M04/M08 A2997 RMK AO1 =
2017-12-15 13:15 METAR KLOM 151815Z AUTO 00000KT 2 1/2SM BKN016 BKN020 OVC033 M03/M10 A2998 RMK
                 AO1 VIS 2V4 =
2017-12-15 12:55 METAR KLOM 151755Z AUTO 00000KT 10SM SCT033 SCT041 OVC048 M03/M11 A3000 RMK AO1
                 =
2017-12-15 12:35 METAR KLOM 151735Z AUTO 00000KT 10SM OVC050 M03/M11 A3000 RMK AO1 =
2017-12-15 12:15 METAR KLOM 151715Z AUTO 00000KT 10SM OVC050 M03/M11 A3001 RMK AO1 =
2017-12-15 11:55 METAR KLOM 151655Z AUTO 00000KT 10SM BKN050 OVC065 M03/M10 A3004 RMK AO1 =
2017-12-15 11:35 METAR KLOM 151635Z AUTO 00000KT 10SM SCT055 OVC065 M03/M10 A3005 RMK AO1 =
2017-12-15 11:15 METAR KLOM 151615Z AUTO 00000KT 10SM OVC055 M03/M10 A3007 RMK AO1 =
2017-12-15 10:55 METAR KLOM 151555Z AUTO 00000KT 10SM OVC049 M03/M11 A3009 RMK AO1 =
2017-12-15 10:35 METAR KLOM 151535Z AUTO 00000KT 10SM OVC049 M03/M10 A3010 RMK AO1 =
2017-12-15 10:15 METAR KLOM 151515Z AUTO 00000KT 10SM OVC049 M04/M11 A3011 RMK AO1 =
2017-12-15 09:55 METAR KLOM 151455Z AUTO 00000KT 10SM BKN049 OVC080 M04/M11 A3012 RMK AO1 =
2017-12-15 09:35 METAR KLOM 151435Z AUTO 00000KT 10SM BKN047 OVC080 M05/M09 A3011 RMK AO1 =
2017-12-15 09:15 METAR KLOM 151415Z AUTO 00000KT 10SM BKN047 BKN075 M05/M10 A3011 RMK AO1 =
2017-12-15 08:55 METAR KLOM 151355Z AUTO 00000KT 10SM BKN045 M06/M08 A3012 RMK AO1 =
2017-12-15 08:35 METAR KLOM 151335Z AUTO 00000KT 10SM SCT045 M06/M08 A3012 RMK AO1 =
2017-12-15 08:15 METAR KLOM 151315Z AUTO 00000KT 10SM CLR M07/M09 A3012 RMK AO1 =
2017-12-15 07:55 METAR KLOM 151255Z AUTO 00000KT 10SM CLR M07/M10 A3012 RMK AO1 =
2017-12-15 07:35 METAR KLOM 151235Z AUTO 00000KT 10SM CLR M07/M10 A3013 RMK AO1 =
2017-12-15 07:15 METAR KLOM 151215Z AUTO 00000KT 10SM CLR M08/M10 A3012 RMK AO1 =
2017-12-15 06:55 METAR KLOM 151155Z AUTO 00000KT 10SM CLR M08/M10 A3013 RMK AO1 =
2017-12-15 06:35 METAR KLOM 151135Z AUTO 00000KT 10SM CLR M08/M10 A3013 RMK AO1 =
2017-12-15 06:15 METAR KLOM 151115Z AUTO 00000KT 10SM CLR M10/M11 A3012 RMK AO1 =

Support USWX by starting your Amazon purchase here.